sensor_id;sensor_type;location;lat;lon;timestamp;P1;durP1;ratioP1;P2;durP2;ratioP2
73733;SDS011;62039;50.000;9.064;2023-11-19T00:01:32;1.93;;;1.60;;
73733;SDS011;62039;50.000;9.064;2023-11-19T00:03:59;2.30;;;1.70;;
73733;SDS011;62039;50.000;9.064;2023-11-19T00:06:26;3.93;;;2.00;;
73733;SDS011;62039;50.000;9.064;2023-11-19T00:08:53;2.83;;;1.83;;
73733;SDS011;62039;50.000;9.064;2023-11-19T00:11:20;2.10;;;1.40;;
73733;SDS011;62039;50.000;9.064;2023-11-19T00:13:49;2.90;;;1.87;;
73733;SDS011;62039;50.000;9.064;2023-11-19T00:16:16;3.43;;;2.00;;
73733;SDS011;62039;50.000;9.064;2023-11-19T00:18:43;3.93;;;1.90;;
73733;SDS011;62039;50.000;9.064;2023-11-19T00:21:10;3.67;;;2.07;;
73733;SDS011;62039;50.000;9.064;2023-11-19T00:23:37;1.90;;;1.57;;
73733;SDS011;62039;50.000;9.064;2023-11-19T00:26:04;3.63;;;2.07;;
73733;SDS011;62039;50.000;9.064;2023-11-19T00:28:31;1.80;;;1.70;;
73733;SDS011;62039;50.000;9.064;2023-11-19T00:31:01;2.27;;;1.60;;
73733;SDS011;62039;50.000;9.064;2023-11-19T00:33:28;1.70;;;1.60;;
73733;SDS011;62039;50.000;9.064;2023-11-19T00:35:55;1.70;;;1.37;;
73733;SDS011;62039;50.000;9.064;2023-11-19T00:38:22;1.93;;;1.57;;
73733;SDS011;62039;50.000;9.064;2023-11-19T00:40:49;2.00;;;1.80;;
73733;SDS011;62039;50.000;9.064;2023-11-19T00:43:16;2.03;;;1.40;;
73733;SDS011;62039;50.000;9.064;2023-11-19T00:45:43;3.23;;;1.60;;
73733;SDS011;62039;50.000;9.064;2023-11-19T00:48:12;1.70;;;1.40;;
73733;SDS011;62039;50.000;9.064;2023-11-19T00:50:39;2.03;;;1.70;;
73733;SDS011;62039;50.000;9.064;2023-11-19T00:53:08;2.63;;;2.07;;
73733;SDS011;62039;50.000;9.064;2023-11-19T00:55:34;3.40;;;2.30;;
73733;SDS011;62039;50.000;9.064;2023-11-19T00:58:11;2.23;;;1.50;;
73733;SDS011;62039;50.000;9.064;2023-11-19T01:00:38;3.93;;;1.80;;
73733;SDS011;62039;50.000;9.064;2023-11-19T01:03:05;1.80;;;1.50;;
73733;SDS011;62039;50.000;9.064;2023-11-19T01:05:35;1.87;;;1.30;;
73733;SDS011;62039;50.000;9.064;2023-11-19T01:08:01;1.67;;;1.20;;
73733;SDS011;62039;50.000;9.064;2023-11-19T01:10:28;3.43;;;1.77;;
73733;SDS011;62039;50.000;9.064;2023-11-19T01:12:55;2.40;;;1.90;;
73733;SDS011;62039;50.000;9.064;2023-11-19T01:15:22;2.10;;;1.20;;
73733;SDS011;62039;50.000;9.064;2023-11-19T01:17:50;2.77;;;1.40;;
73733;SDS011;62039;50.000;9.064;2023-11-19T01:20:19;1.17;;;1.07;;
73733;SDS011;62039;50.000;9.064;2023-11-19T01:22:50;1.20;;;1.10;;
73733;SDS011;62039;50.000;9.064;2023-11-19T01:25:17;1.13;;;1.03;;
73733;SDS011;62039;50.000;9.064;2023-11-19T01:27:44;3.73;;;1.60;;
73733;SDS011;62039;50.000;9.064;2023-11-19T01:30:11;2.57;;;1.50;;
73733;SDS011;62039;50.000;9.064;2023-11-19T01:32:40;2.53;;;1.60;;
73733;SDS011;62039;50.000;9.064;2023-11-19T01:35:07;1.93;;;1.27;;
73733;SDS011;62039;50.000;9.064;2023-11-19T01:37:34;3.17;;;1.33;;
73733;SDS011;62039;50.000;9.064;2023-11-19T01:40:04;1.50;;;1.10;;
73733;SDS011;62039;50.000;9.064;2023-11-19T01:42:35;1.63;;;1.43;;
73733;SDS011;62039;50.000;9.064;2023-11-19T01:45:03;2.30;;;1.50;;
73733;SDS011;62039;50.000;9.064;2023-11-19T01:47:31;2.10;;;1.43;;
73733;SDS011;62039;50.000;9.064;2023-11-19T01:49:58;1.70;;;1.43;;
73733;SDS011;62039;50.000;9.064;2023-11-19T01:52:25;1.33;;;1.20;;
73733;SDS011;62039;50.000;9.064;2023-11-19T01:54:53;1.57;;;1.20;;
73733;SDS011;62039;50.000;9.064;2023-11-19T01:57:23;2.23;;;1.20;;
73733;SDS011;62039;50.000;9.064;2023-11-19T01:59:50;1.07;;;0.97;;
73733;SDS011;62039;50.000;9.064;2023-11-19T02:02:18;0.93;;;0.93;;
73733;SDS011;62039;50.000;9.064;2023-11-19T02:04:46;2.20;;;1.20;;
73733;SDS011;62039;50.000;9.064;2023-11-19T02:07:13;1.30;;;1.17;;
73733;SDS011;62039;50.000;9.064;2023-11-19T02:09:41;1.50;;;1.20;;
73733;SDS011;62039;50.000;9.064;2023-11-19T02:12:09;1.70;;;1.23;;
73733;SDS011;62039;50.000;9.064;2023-11-19T02:14:39;1.37;;;1.00;;
73733;SDS011;62039;50.000;9.064;2023-11-19T02:17:06;1.67;;;1.10;;
73733;SDS011;62039;50.000;9.064;2023-11-19T02:19:33;1.70;;;1.10;;
73733;SDS011;62039;50.000;9.064;2023-11-19T02:21:59;1.13;;;1.00;;
73733;SDS011;62039;50.000;9.064;2023-11-19T02:24:26;1.00;;;0.90;;
73733;SDS011;62039;50.000;9.064;2023-11-19T02:26:58;0.80;;;0.80;;
73733;SDS011;62039;50.000;9.064;2023-11-19T02:29:31;1.43;;;0.90;;
73733;SDS011;62039;50.000;9.064;2023-11-19T02:31:58;1.10;;;0.80;;
73733;SDS011;62039;50.000;9.064;2023-11-19T02:34:25;1.57;;;1.00;;
73733;SDS011;62039;50.000;9.064;2023-11-19T02:36:52;0.93;;;0.83;;
73733;SDS011;62039;50.000;9.064;2023-11-19T02:39:19;3.03;;;1.30;;
73733;SDS011;62039;50.000;9.064;2023-11-19T02:41:46;0.80;;;0.80;;
73733;SDS011;62039;50.000;9.064;2023-11-19T02:44:13;1.30;;;0.90;;
73733;SDS011;62039;50.000;9.064;2023-11-19T02:46:43;2.87;;;0.97;;
73733;SDS011;62039;50.000;9.064;2023-11-19T02:49:10;0.70;;;0.70;;
73733;SDS011;62039;50.000;9.064;2023-11-19T02:51:37;0.70;;;0.70;;
73733;SDS011;62039;50.000;9.064;2023-11-19T02:54:04;0.83;;;0.80;;
73733;SDS011;62039;50.000;9.064;2023-11-19T02:56:31;0.60;;;0.57;;
73733;SDS011;62039;50.000;9.064;2023-11-19T02:58:58;0.63;;;0.63;;
73733;SDS011;62039;50.000;9.064;2023-11-19T03:01:25;0.80;;;0.80;;
73733;SDS011;62039;50.000;9.064;2023-11-19T03:03:54;1.37;;;0.90;;
73733;SDS011;62039;50.000;9.064;2023-11-19T03:06:22;0.80;;;0.60;;
73733;SDS011;62039;50.000;9.064;2023-11-19T03:08:49;1.10;;;0.73;;
73733;SDS011;62039;50.000;9.064;2023-11-19T03:11:15;0.70;;;0.70;;
73733;SDS011;62039;50.000;9.064;2023-11-19T03:13:42;1.23;;;0.90;;
73733;SDS011;62039;50.000;9.064;2023-11-19T03:16:09;1.00;;;0.60;;
73733;SDS011;62039;50.000;9.064;2023-11-19T03:18:36;0.70;;;0.60;;
73733;SDS011;62039;50.000;9.064;2023-11-19T03:21:06;0.80;;;0.80;;
73733;SDS011;62039;50.000;9.064;2023-11-19T03:23:33;0.70;;;0.60;;
73733;SDS011;62039;50.000;9.064;2023-11-19T03:26:00;1.00;;;0.87;;
73733;SDS011;62039;50.000;9.064;2023-11-19T03:28:27;1.33;;;0.93;;
73733;SDS011;62039;50.000;9.064;2023-11-19T03:30:54;1.67;;;0.80;;
73733;SDS011;62039;50.000;9.064;2023-11-19T03:33:21;0.77;;;0.70;;
73733;SDS011;62039;50.000;9.064;2023-11-19T03:35:48;1.20;;;1.00;;
73733;SDS011;62039;50.000;9.064;2023-11-19T03:38:17;0.80;;;0.70;;
73733;SDS011;62039;50.000;9.064;2023-11-19T03:40:44;0.53;;;0.53;;
73733;SDS011;62039;50.000;9.064;2023-11-19T03:43:11;1.00;;;0.63;;
73733;SDS011;62039;50.000;9.064;2023-11-19T03:45:38;1.80;;;0.60;;
73733;SDS011;62039;50.000;9.064;2023-11-19T03:48:05;0.43;;;0.43;;
73733;SDS011;62039;50.000;9.064;2023-11-19T03:50:32;0.47;;;0.47;;
73733;SDS011;62039;50.000;9.064;2023-11-19T03:52:59;0.60;;;0.43;;
73733;SDS011;62039;50.000;9.064;2023-11-19T03:55:28;0.70;;;0.63;;
73733;SDS011;62039;50.000;9.064;2023-11-19T03:57:55;0.60;;;0.60;;
73733;SDS011;62039;50.000;9.064;2023-11-19T04:00:22;0.60;;;0.60;;
73733;SDS011;62039;50.000;9.064;2023-11-19T04:02:49;0.63;;;0.40;;
73733;SDS011;62039;50.000;9.064;2023-11-19T04:05:16;0.50;;;0.50;;
73733;SDS011;62039;50.000;9.064;2023-11-19T04:07:43;0.40;;;0.40;;
73733;SDS011;62039;50.000;9.064;2023-11-19T04:10:10;0.50;;;0.50;;
73733;SDS011;62039;50.000;9.064;2023-11-19T04:12:40;0.30;;;0.30;;
73733;SDS011;62039;50.000;9.064;2023-11-19T04:15:07;0.30;;;0.30;;
73733;SDS011;62039;50.000;9.064;2023-11-19T04:17:34;0.30;;;0.30;;
73733;SDS011;62039;50.000;9.064;2023-11-19T04:20:01;0.40;;;0.30;;
73733;SDS011;62039;50.000;9.064;2023-11-19T04:22:29;0.30;;;0.30;;
73733;SDS011;62039;50.000;9.064;2023-11-19T04:24:56;0.30;;;0.30;;
73733;SDS011;62039;50.000;9.064;2023-11-19T04:27:23;0.30;;;0.30;;
73733;SDS011;62039;50.000;9.064;2023-11-19T04:29:52;0.30;;;0.30;;
73733;SDS011;62039;50.000;9.064;2023-11-19T04:32:20;0.40;;;0.40;;
73733;SDS011;62039;50.000;9.064;2023-11-19T04:34:47;0.30;;;0.30;;
73733;SDS011;62039;50.000;9.064;2023-11-19T04:37:14;0.80;;;0.43;;
73733;SDS011;62039;50.000;9.064;2023-11-19T04:39:41;0.37;;;0.30;;
73733;SDS011;62039;50.000;9.064;2023-11-19T04:42:10;0.30;;;0.30;;
73733;SDS011;62039;50.000;9.064;2023-11-19T04:44:37;0.60;;;0.50;;
73733;SDS011;62039;50.000;9.064;2023-11-19T04:47:07;0.30;;;0.30;;
73733;SDS011;62039;50.000;9.064;2023-11-19T04:49:34;0.30;;;0.30;;
73733;SDS011;62039;50.000;9.064;2023-11-19T04:52:01;0.37;;;0.37;;
73733;SDS011;62039;50.000;9.064;2023-11-19T04:54:28;0.30;;;0.20;;
73733;SDS011;62039;50.000;9.064;2023-11-19T04:56:54;0.30;;;0.30;;
73733;SDS011;62039;50.000;9.064;2023-11-19T04:59:21;1.10;;;0.30;;
73733;SDS011;62039;50.000;9.064;2023-11-19T05:01:48;0.30;;;0.30;;
73733;SDS011;62039;50.000;9.064;2023-11-19T05:04:18;0.40;;;0.40;;
73733;SDS011;62039;50.000;9.064;2023-11-19T05:06:45;0.33;;;0.30;;
73733;SDS011;62039;50.000;9.064;2023-11-19T05:09:12;0.40;;;0.40;;
73733;SDS011;62039;50.000;9.064;2023-11-19T05:11:39;0.67;;;0.40;;
73733;SDS011;62039;50.000;9.064;2023-11-19T05:14:17;0.40;;;0.40;;
73733;SDS011;62039;50.000;9.064;2023-11-19T05:16:44;0.70;;;0.70;;
73733;SDS011;62039;50.000;9.064;2023-11-19T05:19:11;0.50;;;0.50;;
73733;SDS011;62039;50.000;9.064;2023-11-19T05:21:41;0.50;;;0.50;;
73733;SDS011;62039;50.000;9.064;2023-11-19T05:24:08;0.40;;;0.40;;
73733;SDS011;62039;50.000;9.064;2023-11-19T05:26:35;0.37;;;0.37;;
73733;SDS011;62039;50.000;9.064;2023-11-19T05:29:02;2.30;;;0.53;;
73733;SDS011;62039;50.000;9.064;2023-11-19T05:31:29;0.40;;;0.40;;
73733;SDS011;62039;50.000;9.064;2023-11-19T05:33:59;0.50;;;0.50;;
73733;SDS011;62039;50.000;9.064;2023-11-19T05:36:26;0.40;;;0.40;;
73733;SDS011;62039;50.000;9.064;2023-11-19T05:38:55;0.40;;;0.40;;
73733;SDS011;62039;50.000;9.064;2023-11-19T05:41:22;0.40;;;0.40;;
73733;SDS011;62039;50.000;9.064;2023-11-19T05:43:49;0.63;;;0.40;;
73733;SDS011;62039;50.000;9.064;2023-11-19T05:46:16;0.50;;;0.50;;
73733;SDS011;62039;50.000;9.064;2023-11-19T05:48:46;0.50;;;0.50;;
73733;SDS011;62039;50.000;9.064;2023-11-19T05:51:12;0.50;;;0.50;;
73733;SDS011;62039;50.000;9.064;2023-11-19T05:53:39;0.70;;;0.60;;
73733;SDS011;62039;50.000;9.064;2023-11-19T05:56:09;0.47;;;0.43;;
73733;SDS011;62039;50.000;9.064;2023-11-19T05:58:36;0.60;;;0.50;;
73733;SDS011;62039;50.000;9.064;2023-11-19T06:01:04;0.60;;;0.60;;
73733;SDS011;62039;50.000;9.064;2023-11-19T06:03:32;0.53;;;0.50;;
73733;SDS011;62039;50.000;9.064;2023-11-19T06:05:59;0.67;;;0.67;;
73733;SDS011;62039;50.000;9.064;2023-11-19T06:08:25;0.77;;;0.53;;
73733;SDS011;62039;50.000;9.064;2023-11-19T06:10:52;0.53;;;0.40;;
73733;SDS011;62039;50.000;9.064;2023-11-19T06:13:22;0.50;;;0.50;;
73733;SDS011;62039;50.000;9.064;2023-11-19T06:15:50;0.60;;;0.50;;
73733;SDS011;62039;50.000;9.064;2023-11-19T06:18:18;0.80;;;0.73;;
73733;SDS011;62039;50.000;9.064;2023-11-19T06:20:45;0.70;;;0.70;;
73733;SDS011;62039;50.000;9.064;2023-11-19T06:23:12;0.50;;;0.50;;
73733;SDS011;62039;50.000;9.064;2023-11-19T06:25:38;1.10;;;1.00;;
73733;SDS011;62039;50.000;9.064;2023-11-19T06:28:05;1.67;;;1.57;;
73733;SDS011;62039;50.000;9.064;2023-11-19T06:30:35;1.53;;;1.43;;
73733;SDS011;62039;50.000;9.064;2023-11-19T06:33:02;1.30;;;1.20;;
73733;SDS011;62039;50.000;9.064;2023-11-19T06:35:29;1.07;;;1.03;;
73733;SDS011;62039;50.000;9.064;2023-11-19T06:37:56;1.00;;;0.90;;
73733;SDS011;62039;50.000;9.064;2023-11-19T06:40:23;0.80;;;0.80;;
73733;SDS011;62039;50.000;9.064;2023-11-19T06:42:50;1.00;;;0.97;;
73733;SDS011;62039;50.000;9.064;2023-11-19T06:45:17;1.10;;;1.00;;
73733;SDS011;62039;50.000;9.064;2023-11-19T06:47:46;0.93;;;0.90;;
73733;SDS011;62039;50.000;9.064;2023-11-19T06:50:13;0.80;;;0.80;;
73733;SDS011;62039;50.000;9.064;2023-11-19T06:52:40;1.00;;;0.90;;
73733;SDS011;62039;50.000;9.064;2023-11-19T06:55:08;1.60;;;1.50;;
73733;SDS011;62039;50.000;9.064;2023-11-19T06:57:35;1.70;;;1.30;;
73733;SDS011;62039;50.000;9.064;2023-11-19T07:00:02;1.57;;;1.47;;
73733;SDS011;62039;50.000;9.064;2023-11-19T07:02:30;1.53;;;1.40;;
73733;SDS011;62039;50.000;9.064;2023-11-19T07:05:00;1.17;;;1.00;;
73733;SDS011;62039;50.000;9.064;2023-11-19T07:07:26;0.93;;;0.87;;
73733;SDS011;62039;50.000;9.064;2023-11-19T07:09:53;1.60;;;0.90;;
73733;SDS011;62039;50.000;9.064;2023-11-19T07:12:20;0.80;;;0.80;;
73733;SDS011;62039;50.000;9.064;2023-11-19T07:14:47;1.10;;;1.00;;
73733;SDS011;62039;50.000;9.064;2023-11-19T07:17:14;1.07;;;1.07;;
73733;SDS011;62039;50.000;9.064;2023-11-19T07:19:41;1.10;;;1.00;;
73733;SDS011;62039;50.000;9.064;2023-11-19T07:22:10;1.07;;;0.87;;
73733;SDS011;62039;50.000;9.064;2023-11-19T07:24:38;0.93;;;0.70;;
73733;SDS011;62039;50.000;9.064;2023-11-19T07:27:05;1.10;;;0.63;;
73733;SDS011;62039;50.000;9.064;2023-11-19T07:29:32;0.50;;;0.50;;
73733;SDS011;62039;50.000;9.064;2023-11-19T07:31:59;1.23;;;0.80;;
73733;SDS011;62039;50.000;9.064;2023-11-19T07:34:26;0.83;;;0.83;;
73733;SDS011;62039;50.000;9.064;2023-11-19T07:36:53;0.90;;;0.90;;
73733;SDS011;62039;50.000;9.064;2023-11-19T07:39:24;0.70;;;0.70;;
73733;SDS011;62039;50.000;9.064;2023-11-19T07:41:51;2.50;;;2.30;;
73733;SDS011;62039;50.000;9.064;2023-11-19T07:44:18;1.13;;;1.03;;
73733;SDS011;62039;50.000;9.064;2023-11-19T07:46:46;1.00;;;1.00;;
73733;SDS011;62039;50.000;9.064;2023-11-19T07:49:13;2.77;;;1.30;;
73733;SDS011;62039;50.000;9.064;2023-11-19T07:51:40;1.13;;;0.87;;
73733;SDS011;62039;50.000;9.064;2023-11-19T07:54:06;4.70;;;2.07;;
73733;SDS011;62039;50.000;9.064;2023-11-19T07:56:36;2.03;;;1.60;;
73733;SDS011;62039;50.000;9.064;2023-11-19T07:59:04;1.10;;;1.00;;
73733;SDS011;62039;50.000;9.064;2023-11-19T08:01:31;3.27;;;1.10;;
73733;SDS011;62039;50.000;9.064;2023-11-19T08:03:58;6.23;;;1.97;;
73733;SDS011;62039;50.000;9.064;2023-11-19T08:06:26;2.63;;;1.30;;
73733;SDS011;62039;50.000;9.064;2023-11-19T08:08:53;2.17;;;1.50;;
73733;SDS011;62039;50.000;9.064;2023-11-19T08:11:20;3.37;;;1.27;;
73733;SDS011;62039;50.000;9.064;2023-11-19T08:13:49;3.43;;;1.10;;
73733;SDS011;62039;50.000;9.064;2023-11-19T08:16:16;1.10;;;0.80;;
73733;SDS011;62039;50.000;9.064;2023-11-19T08:18:44;1.00;;;0.90;;
73733;SDS011;62039;50.000;9.064;2023-11-19T08:21:11;7.80;;;1.17;;
73733;SDS011;62039;50.000;9.064;2023-11-19T08:23:38;3.60;;;1.10;;
73733;SDS011;62039;50.000;9.064;2023-11-19T08:26:05;2.80;;;1.30;;
73733;SDS011;62039;50.000;9.064;2023-11-19T08:28:32;5.43;;;1.50;;
73733;SDS011;62039;50.000;9.064;2023-11-19T08:31:04;2.53;;;1.20;;
73733;SDS011;62039;50.000;9.064;2023-11-19T08:33:31;3.97;;;1.80;;
73733;SDS011;62039;50.000;9.064;2023-11-19T08:35:58;3.33;;;1.60;;
73733;SDS011;62039;50.000;9.064;2023-11-19T08:38:25;1.20;;;1.10;;
73733;SDS011;62039;50.000;9.064;2023-11-19T08:40:55;1.40;;;0.93;;
73733;SDS011;62039;50.000;9.064;2023-11-19T08:43:22;1.60;;;1.00;;
73733;SDS011;62039;50.000;9.064;2023-11-19T08:45:49;0.90;;;0.80;;
73733;SDS011;62039;50.000;9.064;2023-11-19T08:48:18;2.27;;;1.27;;
73733;SDS011;62039;50.000;9.064;2023-11-19T08:50:45;1.80;;;1.07;;
73733;SDS011;62039;50.000;9.064;2023-11-19T08:53:12;1.90;;;1.20;;
73733;SDS011;62039;50.000;9.064;2023-11-19T08:55:39;1.83;;;1.10;;
73733;SDS011;62039;50.000;9.064;2023-11-19T08:58:06;1.33;;;1.20;;
73733;SDS011;62039;50.000;9.064;2023-11-19T09:00:33;1.00;;;0.83;;
73733;SDS011;62039;50.000;9.064;2023-11-19T09:03:00;2.10;;;0.93;;
73733;SDS011;62039;50.000;9.064;2023-11-19T09:05:30;1.97;;;0.90;;
73733;SDS011;62039;50.000;9.064;2023-11-19T09:07:57;1.33;;;1.00;;
73733;SDS011;62039;50.000;9.064;2023-11-19T09:10:24;2.67;;;1.20;;
73733;SDS011;62039;50.000;9.064;2023-11-19T09:12:51;1.30;;;1.07;;
73733;SDS011;62039;50.000;9.064;2023-11-19T09:15:21;1.50;;;1.10;;
73733;SDS011;62039;50.000;9.064;2023-11-19T09:17:48;2.13;;;1.10;;
73733;SDS011;62039;50.000;9.064;2023-11-19T09:20:15;3.10;;;1.20;;
73733;SDS011;62039;50.000;9.064;2023-11-19T09:22:45;2.80;;;1.33;;
73733;SDS011;62039;50.000;9.064;2023-11-19T09:25:12;2.17;;;1.60;;
73733;SDS011;62039;50.000;9.064;2023-11-19T09:27:39;2.43;;;1.50;;
73733;SDS011;62039;50.000;9.064;2023-11-19T09:30:07;1.97;;;1.00;;
73733;SDS011;62039;50.000;9.064;2023-11-19T09:32:35;1.77;;;0.97;;
73733;SDS011;62039;50.000;9.064;2023-11-19T09:35:02;2.30;;;1.17;;
73733;SDS011;62039;50.000;9.064;2023-11-19T09:37:29;1.80;;;1.10;;
73733;SDS011;62039;50.000;9.064;2023-11-19T09:39:59;3.90;;;1.00;;
73733;SDS011;62039;50.000;9.064;2023-11-19T09:42:26;2.40;;;1.30;;
73733;SDS011;62039;50.000;9.064;2023-11-19T09:44:53;1.40;;;1.27;;
73733;SDS011;62039;50.000;9.064;2023-11-19T09:47:22;1.33;;;1.00;;
73733;SDS011;62039;50.000;9.064;2023-11-19T09:49:51;2.90;;;1.33;;
73733;SDS011;62039;50.000;9.064;2023-11-19T09:52:18;3.70;;;1.53;;
73733;SDS011;62039;50.000;9.064;2023-11-19T09:54:45;2.80;;;1.30;;
73733;SDS011;62039;50.000;9.064;2023-11-19T09:57:15;2.30;;;1.57;;
73733;SDS011;62039;50.000;9.064;2023-11-19T09:59:43;2.47;;;1.50;;
73733;SDS011;62039;50.000;9.064;2023-11-19T10:02:11;2.43;;;1.70;;
73733;SDS011;62039;50.000;9.064;2023-11-19T10:04:39;3.43;;;1.80;;
73733;SDS011;62039;50.000;9.064;2023-11-19T10:07:09;3.20;;;1.50;;
73733;SDS011;62039;50.000;9.064;2023-11-19T10:09:36;4.47;;;2.53;;
73733;SDS011;62039;50.000;9.064;2023-11-19T10:12:03;2.93;;;1.77;;
73733;SDS011;62039;50.000;9.064;2023-11-19T10:14:33;2.27;;;1.60;;
73733;SDS011;62039;50.000;9.064;2023-11-19T10:17:03;2.60;;;1.60;;
73733;SDS011;62039;50.000;9.064;2023-11-19T10:19:31;3.63;;;1.60;;
73733;SDS011;62039;50.000;9.064;2023-11-19T10:22:01;2.13;;;1.00;;
73733;SDS011;62039;50.000;9.064;2023-11-19T10:24:31;2.60;;;1.40;;
73733;SDS011;62039;50.000;9.064;2023-11-19T10:26:58;3.57;;;2.20;;
73733;SDS011;62039;50.000;9.064;2023-11-19T10:29:26;2.40;;;1.50;;
73733;SDS011;62039;50.000;9.064;2023-11-19T10:31:58;2.93;;;1.13;;
73733;SDS011;62039;50.000;9.064;2023-11-19T10:34:45;1.70;;;1.00;;
73733;SDS011;62039;50.000;9.064;2023-11-19T10:37:20;2.17;;;1.00;;
73733;SDS011;62039;50.000;9.064;2023-11-19T10:39:54;2.07;;;1.10;;
73733;SDS011;62039;50.000;9.064;2023-11-19T10:42:22;2.07;;;1.23;;
73733;SDS011;62039;50.000;9.064;2023-11-19T10:44:49;2.00;;;1.17;;
73733;SDS011;62039;50.000;9.064;2023-11-19T10:47:19;3.73;;;1.33;;
73733;SDS011;62039;50.000;9.064;2023-11-19T10:50:04;1.80;;;0.90;;
73733;SDS011;62039;50.000;9.064;2023-11-19T10:52:31;1.77;;;1.00;;
73733;SDS011;62039;50.000;9.064;2023-11-19T10:55:00;3.50;;;1.20;;
73733;SDS011;62039;50.000;9.064;2023-11-19T10:57:29;4.33;;;1.43;;
73733;SDS011;62039;50.000;9.064;2023-11-19T10:59:59;3.40;;;1.40;;
73733;SDS011;62039;50.000;9.064;2023-11-19T11:02:32;2.50;;;1.40;;
73733;SDS011;62039;50.000;9.064;2023-11-19T11:05:02;4.03;;;1.40;;
73733;SDS011;62039;50.000;9.064;2023-11-19T11:07:29;4.13;;;1.20;;
73733;SDS011;62039;50.000;9.064;2023-11-19T11:10:07;6.00;;;1.57;;
73733;SDS011;62039;50.000;9.064;2023-11-19T11:12:35;2.87;;;1.20;;
73733;SDS011;62039;50.000;9.064;2023-11-19T11:15:04;1.70;;;1.00;;
73733;SDS011;62039;50.000;9.064;2023-11-19T11:17:35;4.10;;;1.10;;
73733;SDS011;62039;50.000;9.064;2023-11-19T11:20:03;2.33;;;1.10;;
73733;SDS011;62039;50.000;9.064;2023-11-19T11:22:32;2.97;;;1.27;;
73733;SDS011;62039;50.000;9.064;2023-11-19T11:25:18;2.37;;;1.50;;
73733;SDS011;62039;50.000;9.064;2023-11-19T11:27:58;2.23;;;1.20;;
73733;SDS011;62039;50.000;9.064;2023-11-19T11:30:37;2.20;;;1.20;;
73733;SDS011;62039;50.000;9.064;2023-11-19T11:33:23;2.03;;;1.00;;
73733;SDS011;62039;50.000;9.064;2023-11-19T11:36:01;3.30;;;1.23;;
73733;SDS011;62039;50.000;9.064;2023-11-19T11:38:37;2.27;;;0.90;;
73733;SDS011;62039;50.000;9.064;2023-11-19T11:41:17;2.17;;;1.23;;
73733;SDS011;62039;50.000;9.064;2023-11-19T11:43:46;3.33;;;1.20;;
73733;SDS011;62039;50.000;9.064;2023-11-19T11:49:13;3.80;;;1.13;;
73733;SDS011;62039;50.000;9.064;2023-11-19T11:54:26;1.87;;;1.03;;
73733;SDS011;62039;50.000;9.064;2023-11-19T11:57:05;2.20;;;1.03;;
73733;SDS011;62039;50.000;9.064;2023-11-19T11:59:41;2.43;;;1.30;;
73733;SDS011;62039;50.000;9.064;2023-11-19T12:02:10;4.30;;;1.17;;
73733;SDS011;62039;50.000;9.064;2023-11-19T12:04:41;3.10;;;1.33;;
73733;SDS011;62039;50.000;9.064;2023-11-19T12:07:11;4.00;;;1.50;;
73733;SDS011;62039;50.000;9.064;2023-11-19T12:09:40;4.13;;;1.90;;
73733;SDS011;62039;50.000;9.064;2023-11-19T12:12:08;6.80;;;2.17;;
73733;SDS011;62039;50.000;9.064;2023-11-19T12:17:42;3.47;;;1.70;;
73733;SDS011;62039;50.000;9.064;2023-11-19T12:20:13;2.90;;;1.40;;
73733;SDS011;62039;50.000;9.064;2023-11-19T12:22:40;4.40;;;1.50;;
73733;SDS011;62039;50.000;9.064;2023-11-19T12:25:09;3.77;;;1.70;;
73733;SDS011;62039;50.000;9.064;2023-11-19T12:27:39;6.03;;;3.47;;
73733;SDS011;62039;50.000;9.064;2023-11-19T12:30:07;6.70;;;3.47;;
73733;SDS011;62039;50.000;9.064;2023-11-19T12:32:38;4.87;;;3.47;;
73733;SDS011;62039;50.000;9.064;2023-11-19T12:35:05;5.00;;;2.80;;
73733;SDS011;62039;50.000;9.064;2023-11-19T12:37:35;5.53;;;3.37;;
73733;SDS011;62039;50.000;9.064;2023-11-19T12:40:10;4.40;;;2.40;;
73733;SDS011;62039;50.000;9.064;2023-11-19T12:42:44;5.40;;;3.93;;
73733;SDS011;62039;50.000;9.064;2023-11-19T12:45:11;6.20;;;4.70;;
73733;SDS011;62039;50.000;9.064;2023-11-19T12:47:39;5.07;;;3.80;;
73733;SDS011;62039;50.000;9.064;2023-11-19T12:50:06;5.60;;;3.00;;
73733;SDS011;62039;50.000;9.064;2023-11-19T12:52:37;4.33;;;2.43;;
73733;SDS011;62039;50.000;9.064;2023-11-19T12:55:05;3.10;;;1.77;;
73733;SDS011;62039;50.000;9.064;2023-11-19T12:57:53;2.33;;;1.57;;
73733;SDS011;62039;50.000;9.064;2023-11-19T13:00:20;2.30;;;1.17;;
73733;SDS011;62039;50.000;9.064;2023-11-19T13:02:48;3.07;;;1.60;;
73733;SDS011;62039;50.000;9.064;2023-11-19T13:05:20;3.67;;;1.63;;
73733;SDS011;62039;50.000;9.064;2023-11-19T13:07:53;5.87;;;1.73;;
73733;SDS011;62039;50.000;9.064;2023-11-19T13:10:25;4.37;;;1.30;;
73733;SDS011;62039;50.000;9.064;2023-11-19T13:13:01;6.60;;;1.50;;
73733;SDS011;62039;50.000;9.064;2023-11-19T13:15:29;4.57;;;1.40;;
73733;SDS011;62039;50.000;9.064;2023-11-19T13:17:56;5.70;;;1.70;;
73733;SDS011;62039;50.000;9.064;2023-11-19T13:20:23;4.53;;;1.70;;
73733;SDS011;62039;50.000;9.064;2023-11-19T13:22:56;7.07;;;2.20;;
73733;SDS011;62039;50.000;9.064;2023-11-19T13:25:24;4.47;;;1.87;;
73733;SDS011;62039;50.000;9.064;2023-11-19T13:27:51;5.00;;;2.27;;
73733;SDS011;62039;50.000;9.064;2023-11-19T13:30:19;4.10;;;1.87;;
73733;SDS011;62039;50.000;9.064;2023-11-19T13:32:49;9.47;;;2.00;;
73733;SDS011;62039;50.000;9.064;2023-11-19T13:35:17;3.43;;;1.50;;
73733;SDS011;62039;50.000;9.064;2023-11-19T13:37:44;4.10;;;1.50;;
73733;SDS011;62039;50.000;9.064;2023-11-19T13:40:14;6.03;;;1.57;;
73733;SDS011;62039;50.000;9.064;2023-11-19T13:42:41;5.00;;;1.90;;
73733;SDS011;62039;50.000;9.064;2023-11-19T13:45:10;2.67;;;1.40;;
73733;SDS011;62039;50.000;9.064;2023-11-19T13:47:38;3.30;;;1.40;;
73733;SDS011;62039;50.000;9.064;2023-11-19T13:50:06;4.70;;;2.30;;
73733;SDS011;62039;50.000;9.064;2023-11-19T13:52:34;4.53;;;1.97;;
73733;SDS011;62039;50.000;9.064;2023-11-19T13:55:00;5.17;;;2.20;;
73733;SDS011;62039;50.000;9.064;2023-11-19T13:57:32;4.10;;;1.73;;
73733;SDS011;62039;50.000;9.064;2023-11-19T13:59:59;3.93;;;1.83;;
73733;SDS011;62039;50.000;9.064;2023-11-19T14:02:26;3.83;;;1.40;;
73733;SDS011;62039;50.000;9.064;2023-11-19T14:04:53;3.90;;;2.00;;
73733;SDS011;62039;50.000;9.064;2023-11-19T14:07:20;4.47;;;1.67;;
73733;SDS011;62039;50.000;9.064;2023-11-19T14:09:47;6.77;;;1.93;;
73733;SDS011;62039;50.000;9.064;2023-11-19T14:12:14;5.60;;;1.97;;
73733;SDS011;62039;50.000;9.064;2023-11-19T14:14:44;2.90;;;1.50;;
73733;SDS011;62039;50.000;9.064;2023-11-19T14:17:11;5.50;;;2.20;;
73733;SDS011;62039;50.000;9.064;2023-11-19T14:19:40;5.03;;;1.83;;
73733;SDS011;62039;50.000;9.064;2023-11-19T14:22:07;4.57;;;1.70;;
73733;SDS011;62039;50.000;9.064;2023-11-19T14:24:34;4.43;;;1.80;;
73733;SDS011;62039;50.000;9.064;2023-11-19T14:27:01;3.23;;;1.70;;
73733;SDS011;62039;50.000;9.064;2023-11-19T14:29:28;5.83;;;1.90;;
73733;SDS011;62039;50.000;9.064;2023-11-19T14:31:57;5.73;;;2.50;;
73733;SDS011;62039;50.000;9.064;2023-11-19T14:34:24;3.17;;;1.50;;
73733;SDS011;62039;50.000;9.064;2023-11-19T14:36:51;3.57;;;1.93;;
73733;SDS011;62039;50.000;9.064;2023-11-19T14:39:18;4.20;;;2.03;;
73733;SDS011;62039;50.000;9.064;2023-11-19T14:41:45;3.67;;;1.90;;
73733;SDS011;62039;50.000;9.064;2023-11-19T14:44:12;5.80;;;1.80;;
73733;SDS011;62039;50.000;9.064;2023-11-19T14:46:39;5.40;;;2.30;;
73733;SDS011;62039;50.000;9.064;2023-11-19T14:49:09;4.07;;;1.77;;
73733;SDS011;62039;50.000;9.064;2023-11-19T14:51:36;3.47;;;1.50;;
73733;SDS011;62039;50.000;9.064;2023-11-19T14:54:03;1.63;;;0.93;;
73733;SDS011;62039;50.000;9.064;2023-11-19T14:56:31;3.37;;;1.40;;
73733;SDS011;62039;50.000;9.064;2023-11-19T14:58:58;2.87;;;1.27;;
73733;SDS011;62039;50.000;9.064;2023-11-19T15:01:25;3.70;;;1.30;;
73733;SDS011;62039;50.000;9.064;2023-11-19T15:03:52;2.73;;;1.20;;